Flight Track Log - Related Links

Times and Time Zones

All times are in EDT time to prevent confusion due to time zone crossing. See the IBE3329 flight status page for this flight to view local times or setup timezone preferences in your user account.

Time Position Orientation Groundspeed Altitude Reporting Facility
EDT Latitude Longitude Course Direction KTS MPH feet Rate Location/Type
Thu 07:24:00 PM 21.2630 -14.5776 23° Northeast  Level Estimated
Thu 07:25:00 PM 21.3750 -14.5253 23° Northeast  Level Estimated
Thu 07:26:00 PM 21.4870 -14.4730 23° Northeast  Level Estimated
Thu 07:27:00 PM 21.5991 -14.4206 24° Northeast  Level Estimated
Thu 07:28:00 PM 21.7111 -14.3680 24° Northeast  Level Estimated
Thu 07:29:00 PM 21.8231 -14.3155 24° Northeast  Level Estimated
Thu 07:30:00 PM 21.9350 -14.2628 24° Northeast  Level Estimated
Thu 07:31:00 PM 22.0470 -14.2100 24° Northeast  Level Estimated
Thu 07:32:00 PM 22.1589 -14.1572 24° Northeast  Level Estimated
Thu 07:33:00 PM 22.2709 -14.1043 24° Northeast  Level Estimated
Thu 07:34:00 PM 22.3828 -14.0513 24° Northeast  Level Estimated
Thu 07:35:00 PM 22.4947 -13.9982 24° Northeast  Level Estimated
Thu 07:36:00 PM 22.6065 -13.9450 24° Northeast  Level Estimated
Thu 07:37:00 PM 22.7184 -13.8918 24° Northeast  Level Estimated
Thu 07:38:00 PM 22.8302 -13.8384 24° Northeast  Level Estimated
Thu 07:39:00 PM 22.9420 -13.7850 24° Northeast  Level Estimated
Thu 07:40:00 PM 23.0538 -13.7314 24° Northeast  Level Estimated
Thu 07:41:00 PM 23.1656 -13.6778 24° Northeast  Level Estimated
Thu 07:42:00 PM 23.2774 -13.6241 24° Northeast  Level Estimated
Thu 07:43:00 PM 23.3891 -13.5703 24° Northeast  Level Estimated
Thu 07:44:00 PM 23.5009 -13.5164 24° Northeast  Level Estimated
Thu 07:45:00 PM 23.6126 -13.4625 24° Northeast  Level Estimated
Thu 07:46:00 PM 23.7243 -13.4084 24° Northeast  Level Estimated
Thu 07:47:00 PM 23.8359 -13.3542 24° Northeast  Level Estimated
Thu 07:48:00 PM 23.9476 -13.3000 24° Northeast  Level Estimated
Thu 07:49:00 PM 24.0592 -13.2456 24° Northeast  Level Estimated
Thu 07:50:00 PM 24.1708 -13.1912 24° Northeast  Level Estimated
Thu 07:51:00 PM 24.2824 -13.1366 24° Northeast  Level Estimated
Thu 07:52:00 PM 24.3940 -13.0820 24° Northeast  Level Estimated
Thu 07:53:00 PM 24.5056 -13.0273 24° Northeast  Level Estimated
Thu 07:54:00 PM 24.6171 -12.9725 24° Northeast  Level Estimated
Thu 07:55:00 PM 24.7286 -12.9175 24° Northeast  Level Estimated
Thu 07:56:00 PM 24.8401 -12.8625 24° Northeast  Level Estimated
Thu 07:57:00 PM 24.9516 -12.8074 24° Northeast  Level Estimated
Thu 07:58:00 PM 25.0631 -12.7521 24° Northeast  Level Estimated
Thu 07:59:00 PM 25.1745 -12.6968 24° Northeast  Level Estimated
Thu 08:00:00 PM 25.2859 -12.6414 24° Northeast  Level Estimated
Thu 08:01:00 PM 25.3973 -12.5859 24° Northeast  Level Estimated
Thu 08:02:00 PM 25.5087 -12.5302 24° Northeast  Level Estimated
Thu 08:03:00 PM 25.6200 -12.4745 24° Northeast  Level Estimated
Thu 08:04:00 PM 25.7313 -12.4187 24° Northeast  Level Estimated
Thu 08:04:18 PM 25.3390 -11.5000 24° Northeast 445 512 33,000  Level FlightAware ADS-B
Thu 08:05:00 PM 25.8427 -12.3627 24° Northeast  Level Estimated
Thu 08:05:03 PM 25.4160 -11.4690 20° North 445 512 33,000  Level FlightAware ADS-B
Thu 08:05:38 PM 25.4830 -11.4400 21° North 445 512 33,000  Level FlightAware ADS-B
Thu 08:06:28 PM 25.5650 -11.4070 20° North 445 512 33,000  Level FlightAware ADS-B
Thu 08:07:08 PM 25.6660 -11.3640 21° North 33,000  Level FlightAware ADS-B
Thu 08:09:00 PM 25.8778 -11.2702 22° Northeast  Level Estimated
Thu 08:09:28 PM 25.9440 -11.2480 22° Northeast 447 514 33,000  Level FlightAware ADS-B
Thu 08:10:08 PM 26.0100 -11.2210 20° North 447 514 33,000  Level FlightAware ADS-B
Thu 08:10:48 PM 26.0760 -11.1940 20° North 447 514 33,000  Level FlightAware ADS-B
Thu 08:11:28 PM 26.1420 -11.1670 20° North 447 514 33,000 -13 Level FlightAware ADS-B
Thu 08:14:00 PM 26.4292 -11.0384 22° Northeast  Level Estimated
Thu 08:15:00 PM 26.5426 -10.9874 22° Northeast  Level Estimated
Thu 08:16:00 PM 26.6559 -10.9363 22° Northeast  Level Estimated
Thu 08:17:00 PM 26.7692 -10.8852 22° Northeast  Level Estimated
Thu 08:18:00 PM 26.8825 -10.8339 22° Northeast  Level Estimated
Thu 08:19:00 PM 26.9958 -10.7825 22° Northeast  Level Estimated
Thu 08:20:00 PM 27.1090 -10.7311 22° Northeast  Level Estimated
Thu 08:21:00 PM 27.2222 -10.6795 22° Northeast  Level Estimated
Thu 08:22:00 PM 27.3354 -10.6278 22° Northeast  Level Estimated
Thu 08:23:00 PM 27.4487 -10.5760 22° Northeast  Level Estimated
Thu 08:24:00 PM 27.5618 -10.5241 22° Northeast  Level Estimated
Thu 08:25:00 PM 27.6750 -10.4721 22° Northeast  Level Estimated
Thu 08:26:00 PM 27.7881 -10.4200 22° Northeast  Level Estimated
Thu 08:27:00 PM 27.9013 -10.3678 22° Northeast  Level Estimated
Thu 08:28:00 PM 28.0144 -10.3155 22° Northeast  Level Estimated
Thu 08:29:00 PM 28.1274 -10.2631 22° Northeast  Level Estimated
Thu 08:30:00 PM 28.2405 -10.2105 22° Northeast  Level Estimated
Thu 08:31:00 PM 28.3535 -10.1579 22° Northeast  Level Estimated
Thu 08:32:00 PM 28.4666 -10.1051 22° Northeast  Level Estimated
Thu 08:33:00 PM 28.5795 -10.0522 22° Northeast  Level Estimated
Thu 08:34:00 PM 28.6925 -9.9992 22° Northeast  Level Estimated
Thu 08:35:00 PM 28.8055 -9.9461 22° Northeast  Level Estimated
Thu 08:36:00 PM 28.9184 -9.8929 22° Northeast  Level Estimated
Thu 08:37:00 PM 29.0313 -9.8396 22° Northeast  Level Estimated
Thu 08:38:00 PM 29.1442 -9.7861 22° Northeast  Level Estimated
Thu 08:39:00 PM 29.2571 -9.7325 22° Northeast  Level Estimated
Thu 08:40:00 PM 29.3699 -9.6789 23° Northeast  Level Estimated
Thu 08:41:00 PM 29.4828 -9.6250 23° Northeast  Level Estimated
Thu 08:42:00 PM 29.5956 -9.5711 23° Northeast  Level Estimated
Thu 08:43:00 PM 29.7084 -9.5171 23° Northeast  Level Estimated
Thu 08:44:00 PM 29.8211 -9.4629 23° Northeast  Level Estimated
Thu 08:45:00 PM 29.9339 -9.4086 23° Northeast  Level Estimated
Thu 08:46:00 PM 30.0466 -9.3542 23° Northeast  Level Estimated
Thu 08:47:00 PM 30.1593 -9.2996 23° Northeast  Level Estimated
Thu 08:48:00 PM 30.2720 -9.2450 23° Northeast  Level Estimated
Thu 08:49:00 PM 30.3846 -9.1902 23° Northeast  Level Estimated
Thu 08:50:00 PM 30.4972 -9.1353 23° Northeast  Level Estimated
Thu 08:51:00 PM 30.6098 -9.0802 23° Northeast  Level Estimated
Thu 08:52:00 PM 30.7224 -9.0250 23° Northeast  Level Estimated
Thu 08:53:00 PM 30.8350 -8.9697 23° Northeast  Level Estimated
Thu 08:54:00 PM 30.9475 -8.9143 23° Northeast  Level Estimated
Thu 08:55:00 PM 31.0600 -8.8587 23° Northeast  Level Estimated
Thu 08:56:00 PM 31.1725 -8.8030 23° Northeast  Level Estimated
Thu 08:57:00 PM 31.2850 -8.7472 23° Northeast  Level Estimated
Thu 08:58:00 PM 31.3974 -8.6912 23° Northeast  Level Estimated
Thu 08:59:00 PM 31.5098 -8.6351 23° Northeast  Level Estimated
Thu 09:00:00 PM 31.6222 -8.5789 23° Northeast  Level Estimated
Thu 09:01:00 PM 31.7346 -8.5225 23° Northeast  Level Estimated
Thu 09:02:00 PM 31.8469 -8.4660 23° Northeast  Level Estimated
Thu 09:03:00 PM 31.9592 -8.4094 23° Northeast  Level Estimated
Thu 09:04:00 PM 32.0715 -8.3526 23° Northeast  Level Estimated
Thu 09:05:00 PM 32.1838 -8.2957 23° Northeast  Level Estimated
Thu 09:06:00 PM 32.2960 -8.2386 23° Northeast  Level Estimated
Thu 09:07:00 PM 32.4082 -8.1814 23° Northeast  Level Estimated
Thu 09:08:00 PM 32.5204 -8.1241 23° Northeast  Level Estimated
Thu 09:09:00 PM 32.6326 -8.0666 23° Northeast  Level Estimated
Thu 09:10:00 PM 32.7447 -8.0089 23° Northeast  Level Estimated
Thu 09:11:00 PM 32.8568 -7.9511 23° Northeast  Level Estimated
Thu 09:12:00 PM 32.9689 -7.8932 23° Northeast  Level Estimated
Thu 09:13:00 PM 33.0810 -7.8351 23° Northeast  Level Estimated
Thu 09:14:00 PM 33.1930 -7.7769 24° Northeast  Level Estimated
Thu 09:15:00 PM 33.3050 -7.7186 24° Northeast  Level Estimated
Thu 09:16:00 PM 33.4170 -7.6600 24° Northeast  Level Estimated
Thu 09:17:00 PM 33.5289 -7.6014 24° Northeast  Level Estimated
Thu 09:18:00 PM 33.6409 -7.5426 24° Northeast  Level Estimated
Thu 09:19:00 PM 33.7528 -7.4836 24° Northeast  Level Estimated
Thu 09:20:00 PM 33.8646 -7.4244 24° Northeast  Level Estimated
Thu 09:21:00 PM 33.9764 -7.3651 24° Northeast  Level Estimated
Thu 09:22:00 PM 34.0882 -7.3057 24° Northeast  Level Estimated
Thu 09:23:00 PM 34.2000 -7.2461 24° Northeast  Level Estimated
Thu 09:24:00 PM 34.3118 -7.1863 24° Northeast  Level Estimated
Thu 09:25:00 PM 34.4235 -7.1264 24° Northeast  Level Estimated
Thu 09:26:00 PM 34.5352 -7.0663 24° Northeast  Level Estimated
Thu 09:26:43 PM 34.5630 -7.0320 24° Northeast 439 505 32,000  Level FlightAware ADS-B
Thu 09:27:00 PM 34.6469 -7.0061 24° Northeast  Level Estimated
Thu 09:27:28 PM 34.6450 -6.9860 25° Northeast 440 506 32,000  Level FlightAware ADS-B
Thu 09:28:08 PM 34.7240 -6.9420 25° Northeast 440 506 32,000  Level FlightAware ADS-B
Thu 09:28:53 PM 34.8070 -6.8950 25° Northeast 441 507 32,000  Level FlightAware ADS-B
Thu 09:29:33 PM 34.8820 -6.8530 25° Northeast 440 506 32,000  Level FlightAware ADS-B
Thu 09:30:13 PM 34.9570 -6.8110 25° Northeast 441 507 32,000  Level FlightAware ADS-B
Thu 09:30:58 PM 35.0390 -6.7640 25° Northeast 441 507 32,000  Level FlightAware ADS-B
Thu 09:31:38 PM 35.1130 -6.7220 25° Northeast 441 507 32,000  Level FlightAware ADS-B
Thu 09:32:23 PM 35.1980 -6.6750 24° Northeast 439 505 32,000  Level FlightAware ADS-B
Thu 09:33:03 PM 35.2710 -6.6330 25° Northeast 440 506 32,000  Level FlightAware ADS-B
Thu 09:33:43 PM 35.3450 -6.5910 25° Northeast 441 507 32,000  Level FlightAware ADS-B
Thu 09:34:28 PM 35.4300 -6.5420 25° Northeast 442 509 32,000  Level FlightAware ADS-B
Thu 09:35:08 PM 35.5030 -6.5000 25° Northeast 443 510 32,000  Level FlightAware ADS-B
Thu 09:35:53 PM 35.5880 -6.4520 25° Northeast 443 510 32,000  Level FlightAware ADS-B
Thu 09:36:33 PM 35.6620 -6.4090 25° Northeast 444 511 32,000  Level FlightAware ADS-B
Thu 09:37:18 PM 35.7460 -6.3610 25° Northeast 445 512 32,000  Level FlightAware ADS-B
Thu 09:37:58 PM 35.8210 -6.3170 25° Northeast 438 504 32,000  Level FlightAware ADS-B
Thu 09:38:38 PM 35.8910 -6.2630 32° Northeast 448 516 32,000  Level FlightAware ADS-B
Thu 09:39:23 PM 35.9690 -6.1990 34° Northeast 449 517 32,000  Level FlightAware ADS-B
Thu 09:40:03 PM 36.0380 -6.1430 33° Northeast 449 517 32,000  Level FlightAware ADS-B
Thu 09:40:48 PM 36.1160 -6.0780 34° Northeast 450 518 32,000  Level FlightAware ADS-B
Thu 09:41:28 PM 36.1870 -6.0240 32° Northeast 450 518 32,000  Level FlightAware ADS-B
Thu 09:42:08 PM 36.2630 -5.9840 23° Northeast 446 513 32,000  Level FlightAware ADS-B
Thu 09:42:53 PM 36.3520 -5.9550 15° North 445 512 32,000  Level FlightAware ADS-B
Thu 09:43:33 PM 36.4330 -5.9310 13° North 445 512 32,000  Level FlightAware ADS-B
Thu 09:44:13 PM 36.5130 -5.9070 14° North 446 513 32,000  Level FlightAware ADS-B
Thu 09:44:58 PM 36.6040 -5.8800 13° North 448 516 32,000  Level FlightAware ADS-B
Thu 09:45:38 PM 36.6850 -5.8560 13° North 449 517 32,000  Level FlightAware ADS-B
Thu 09:46:23 PM 36.7760 -5.8290 13° North 449 517 32,000  Level FlightAware ADS-B
Thu 09:47:03 PM 36.8570 -5.8050 13° North 450 518 32,000  Level FlightAware ADS-B
Thu 09:47:43 PM 36.9380 -5.7810 13° North 450 518 32,000  Level FlightAware ADS-B
Thu 09:48:28 PM 37.0300 -5.7540 13° North 443 510 32,000  Level FlightAware ADS-B
Thu 09:49:08 PM 37.1110 -5.7290 14° North 443 510 32,000  Level FlightAware ADS-B
Thu 09:49:53 PM 37.2030 -5.7020 13° North 443 510 32,000  Level FlightAware ADS-B
Thu 09:50:33 PM 37.2840 -5.6780 13° North 443 510 32,000  Level FlightAware ADS-B
Thu 09:51:18 PM 37.3760 -5.6500 14° North 443 510 32,000  Level FlightAware ADS-B
Thu 09:51:58 PM 37.4570 -5.6260 13° North 444 511 32,000  Level FlightAware ADS-B
Thu 09:52:38 PM 37.5390 -5.6010 14° North 444 511 32,000  Level FlightAware ADS-B
Thu 09:53:23 PM 37.6310 -5.5730 14° North 446 513 32,000  Level FlightAware ADS-B
Thu 09:54:03 PM 37.7130 -5.5480 14° North 446 513 32,000  Level FlightAware ADS-B
Thu 09:54:43 PM 37.7930 -5.5240 13° North 448 516 32,000  Level FlightAware ADS-B
Thu 09:55:28 PM 37.8870 -5.4950 14° North 447 514 32,000  Level FlightAware ADS-B
Thu 09:56:08 PM 37.9700 -5.4700 13° North 449 517 32,000  Level FlightAware ADS-B
Thu 09:56:53 PM 38.0620 -5.4420 13° North 449 517 32,000  Level FlightAware ADS-B
Thu 09:57:33 PM 38.1440 -5.4160 14° North 450 518 32,000  Level FlightAware ADS-B
Thu 09:58:13 PM 38.2270 -5.3910 13° North 451 519 32,000  Level FlightAware ADS-B
Thu 09:58:58 PM 38.3190 -5.3620 14° North 460 529 32,000  Level FlightAware ADS-B
Thu 09:59:33 PM 38.3890 -5.3410 13° North 460 529 32,000  Level FlightAware ADS-B
Thu 10:00:18 PM 38.4820 -5.3120 14° North 460 529 32,000  Level FlightAware ADS-B
Thu 10:00:58 PM 38.5690 -5.2850 14° North 461 531 32,000  Level FlightAware ADS-B
Thu 10:01:48 PM 38.6730 -5.2520 14° North 461 531 32,000  Level FlightAware ADS-B
Thu 10:02:28 PM 38.7560 -5.2260 14° North 462 532 32,000  Level FlightAware ADS-B
Thu 10:03:08 PM 38.8380 -5.1900 19° North 468 539 32,000 -282 Level FlightAware ADS-B
Thu 10:03:53 PM 38.9280 -5.1300 27° Northeast 474 545 31,600 -918 Descending FlightAware ADS-B
Thu 10:04:33 PM 38.9990 -5.0640 36° Northeast 480 552 30,700 -1,694 Descending FlightAware ADS-B
Thu 10:05:18 PM 39.0720 -4.9750 43° Northeast 487 560 29,200 -1,835 Descending FlightAware ADS-B
Thu 10:05:58 PM 39.1260 -4.8850 52° Northeast 490 564 28,100 -2,047 Descending FlightAware ADS-B
Thu 10:06:43 PM 39.1810 -4.7730 58° Northeast 478 550 26,300 -2,259 Descending FlightAware ADS-B
Thu 10:07:23 PM 39.2380 -4.6880 49° Northeast 462 532 24,900 -2,175 Descending FlightAware ADS-B
Thu 10:08:03 PM 39.2970 -4.6120 45° Northeast 452 520 23,400 -2,188 Descending FlightAware ADS-B
Thu 10:08:48 PM 39.3620 -4.5270 45° Northeast 441 507 21,800 -2,047 Descending FlightAware ADS-B
Thu 10:09:28 PM 39.4170 -4.4550 45° Northeast 430 495 20,500 -1,575 Descending FlightAware ADS-B
Thu 10:10:08 PM 39.4720 -4.3830 45° Northeast 410 472 19,700 -1,129 Descending FlightAware ADS-B
Thu 10:10:53 PM 39.5350 -4.3020 45° Northeast 409 471 18,900 -988 Descending FlightAware ADS-B
Thu 10:11:33 PM 39.5870 -4.2340 45° Northeast 405 466 18,300 -1,412 Descending FlightAware ADS-B
Thu 10:12:18 PM 39.6460 -4.1560 45° Northeast 402 463 16,900 -1,906 Descending FlightAware ADS-B
Thu 10:12:58 PM 39.6970 -4.0880 46° Northeast 396 456 15,600 -1,906 Descending FlightAware ADS-B
Thu 10:13:43 PM 39.7560 -4.0120 45° Northeast 390 449 14,200 -1,906 Descending FlightAware ADS-B
Thu 10:14:23 PM 39.8060 -3.9450 46° Northeast 384 442 12,900 -1,950 Descending FlightAware ADS-B
Thu 10:15:03 PM 39.8560 -3.8790 45° Northeast 379 436 11,600 -1,694 Descending FlightAware ADS-B
Thu 10:15:48 PM 39.9090 -3.8090 45° Northeast 364 419 10,500 -1,129 Descending FlightAware ADS-B
Thu 10:16:28 PM 39.9540 -3.7480 46° Northeast 332 382 10,000 -771 Descending FlightAware ADS-B
Thu 10:16:58 PM 39.9860 -3.7060 45° Northeast 313 360 9,600 -1,091 Descending FlightAware ADS-B
Thu 10:17:23 PM 40.0120 -3.6710 46° Northeast 306 352 9,000 -1,527 Descending FlightAware ADS-B
Thu 10:17:53 PM 40.0410 -3.6320 46° Northeast 304 350 8,200 -1,527 Descending FlightAware ADS-B
Thu 10:18:18 PM 40.0650 -3.6010 45° Northeast 303 349 7,600 -1,418 Descending FlightAware ADS-B
Thu 10:18:48 PM 40.0940 -3.5610 47° Northeast 299 344 6,900 -1,200 Descending FlightAware ADS-B
Thu 10:19:18 PM 40.1220 -3.5240 45° Northeast 288 331 6,400 -982 Descending FlightAware ADS-B
Thu 10:19:43 PM 40.1460 -3.4920 46° Northeast 273 314 6,000 -982 Descending FlightAware ADS-B
Thu 10:20:13 PM 40.1730 -3.4560 46° Northeast 260 299 5,500 -1,000 Descending FlightAware ADS-B
Thu 10:20:43 PM 40.1970 -3.4230 46° Northeast 253 291 5,000 -655 Descending FlightAware ADS-B
Thu 10:21:08 PM 40.2160 -3.3970 46° Northeast 251 289 4,900 -109 Descending FlightAware ADS-B
Thu 10:21:38 PM 40.2400 -3.3660 45° Northeast 250 288 4,900  Level FlightAware ADS-B
Thu 10:22:03 PM 40.2650 -3.3410 37° Northeast 244 281 4,900  Level FlightAware ADS-B
Thu 10:22:33 PM 40.2950 -3.3560 339° North 233 268 4,900  Level FlightAware ADS-B
Thu 10:23:03 PM 40.3200 -3.3810 323° Northwest 217 250 4,900  Level FlightAware ADS-B
Thu 10:23:28 PM 40.3380 -3.3990 323° Northwest 211 243 4,900 -436 Level FlightAware ADS-B
Thu 10:23:58 PM 40.3610 -3.4220 323° Northwest 194 223 4,500 -873 Descending FlightAware ADS-B
Thu 10:24:23 PM 40.3790 -3.4400 323° Northwest 184 212 4,100 -900 Descending FlightAware ADS-B
Thu 10:24:38 PM 40.3880 -3.4500 320° Northwest 179 206 3,900 -933 Descending FlightAware ADS-B
Thu 10:25:08 PM 40.4070 -3.4690 323° Northwest 168 193 3,400 -982 Descending FlightAware ADS-B
Thu 10:25:33 PM 40.4230 -3.4850 323° Northwest 160 184 3,000 -764 Descending FlightAware ADS-B
Thu 10:26:03 PM 40.4390 -3.5020 321° Northwest 149 171 2,700 -800 Descending FlightAware ADS-B
Thu 10:26:33 PM 40.4560 -3.5180 324° Northwest 141 162 2,200 -873 Descending FlightAware ADS-B
Thu 10:26:58 PM 40.4690 -3.5310 323° Northwest 141 162 1,900 -720 Descending FlightAware ADS-B

Login

Don't have an account? Register now (free) for customized features, flight alerts, and more!